sensor_id;sensor_type;location;lat;lon;timestamp;temperature;humidity
11704;DHT22;5908;51.354;7.458;2023-05-10T00:00:22;14.00;99.90
11704;DHT22;5908;51.354;7.458;2023-05-10T00:02:49;13.90;99.90
11704;DHT22;5908;51.354;7.458;2023-05-10T00:05:16;13.90;99.90
11704;DHT22;5908;51.354;7.458;2023-05-10T00:07:43;13.90;99.90
11704;DHT22;5908;51.354;7.458;2023-05-10T00:10:12;13.90;99.90
11704;DHT22;5908;51.354;7.458;2023-05-10T00:12:39;13.90;99.90
11704;DHT22;5908;51.354;7.458;2023-05-10T00:15:07;14.00;99.90
11704;DHT22;5908;51.354;7.458;2023-05-10T00:17:34;13.90;99.90
11704;DHT22;5908;51.354;7.458;2023-05-10T00:20:00;14.00;99.90
11704;DHT22;5908;51.354;7.458;2023-05-10T00:22:27;13.90;99.90
11704;DHT22;5908;51.354;7.458;2023-05-10T00:24:54;13.90;99.90
11704;DHT22;5908;51.354;7.458;2023-05-10T00:27:22;13.90;99.90
11704;DHT22;5908;51.354;7.458;2023-05-10T00:29:49;13.90;99.90
11704;DHT22;5908;51.354;7.458;2023-05-10T00:32:16;13.90;99.90
11704;DHT22;5908;51.354;7.458;2023-05-10T00:34:43;13.90;99.90
11704;DHT22;5908;51.354;7.458;2023-05-10T00:37:09;14.00;99.90
11704;DHT22;5908;51.354;7.458;2023-05-10T00:39:36;13.90;99.90
11704;DHT22;5908;51.354;7.458;2023-05-10T00:42:03;13.90;99.90
11704;DHT22;5908;51.354;7.458;2023-05-10T00:44:31;13.90;99.90
11704;DHT22;5908;51.354;7.458;2023-05-10T00:46:59;13.90;99.90
11704;DHT22;5908;51.354;7.458;2023-05-10T00:49:26;13.80;99.90
11704;DHT22;5908;51.354;7.458;2023-05-10T00:51:53;13.80;99.90
11704;DHT22;5908;51.354;7.458;2023-05-10T00:54:20;13.80;99.90
11704;DHT22;5908;51.354;7.458;2023-05-10T00:56:47;13.80;99.90
11704;DHT22;5908;51.354;7.458;2023-05-10T00:59:15;13.80;99.90
11704;DHT22;5908;51.354;7.458;2023-05-10T01:01:45;13.80;99.90
11704;DHT22;5908;51.354;7.458;2023-05-10T01:04:13;13.70;99.90
11704;DHT22;5908;51.354;7.458;2023-05-10T01:06:40;13.80;99.90
11704;DHT22;5908;51.354;7.458;2023-05-10T01:09:07;13.80;99.90
11704;DHT22;5908;51.354;7.458;2023-05-10T01:11:35;13.80;99.90
11704;DHT22;5908;51.354;7.458;2023-05-10T01:14:02;13.70;99.90
11704;DHT22;5908;51.354;7.458;2023-05-10T01:16:31;13.70;99.90
11704;DHT22;5908;51.354;7.458;2023-05-10T01:19:00;13.70;99.90
11704;DHT22;5908;51.354;7.458;2023-05-10T01:21:32;13.70;99.90
11704;DHT22;5908;51.354;7.458;2023-05-10T01:24:29;13.60;99.90
11704;DHT22;5908;51.354;7.458;2023-05-10T01:27:20;13.60;99.90
11704;DHT22;5908;51.354;7.458;2023-05-10T01:30:08;13.70;99.90
11704;DHT22;5908;51.354;7.458;2023-05-10T01:32:45;13.70;99.90
11704;DHT22;5908;51.354;7.458;2023-05-10T01:35:19;13.70;99.90
11704;DHT22;5908;51.354;7.458;2023-05-10T01:37:55;13.80;99.90
11704;DHT22;5908;51.354;7.458;2023-05-10T01:40:30;13.80;99.90
11704;DHT22;5908;51.354;7.458;2023-05-10T01:43:01;13.80;99.90
11704;DHT22;5908;51.354;7.458;2023-05-10T01:45:31;13.90;99.90
11704;DHT22;5908;51.354;7.458;2023-05-10T01:48:05;13.80;99.90
11704;DHT22;5908;51.354;7.458;2023-05-10T01:50:34;13.80;99.90
11704;DHT22;5908;51.354;7.458;2023-05-10T01:53:02;13.80;99.90
11704;DHT22;5908;51.354;7.458;2023-05-10T01:55:34;13.80;99.90
11704;DHT22;5908;51.354;7.458;2023-05-10T01:58:06;13.70;99.90
11704;DHT22;5908;51.354;7.458;2023-05-10T02:00:34;13.80;99.90
11704;DHT22;5908;51.354;7.458;2023-05-10T02:03:06;13.70;99.90
11704;DHT22;5908;51.354;7.458;2023-05-10T02:05:34;13.70;99.90
11704;DHT22;5908;51.354;7.458;2023-05-10T02:08:05;13.70;99.90
11704;DHT22;5908;51.354;7.458;2023-05-10T02:10:33;13.70;99.90
11704;DHT22;5908;51.354;7.458;2023-05-10T02:13:02;13.70;99.90
11704;DHT22;5908;51.354;7.458;2023-05-10T02:15:30;13.60;99.90
11704;DHT22;5908;51.354;7.458;2023-05-10T02:17:58;13.70;99.90
11704;DHT22;5908;51.354;7.458;2023-05-10T02:20:28;13.70;99.90
11704;DHT22;5908;51.354;7.458;2023-05-10T02:22:57;13.70;99.90
11704;DHT22;5908;51.354;7.458;2023-05-10T02:25:25;13.60;99.90
11704;DHT22;5908;51.354;7.458;2023-05-10T02:27:56;13.70;99.90
11704;DHT22;5908;51.354;7.458;2023-05-10T02:30:24;13.70;99.90
11704;DHT22;5908;51.354;7.458;2023-05-10T02:32:51;13.70;99.90
11704;DHT22;5908;51.354;7.458;2023-05-10T02:35:18;13.70;99.90
11704;DHT22;5908;51.354;7.458;2023-05-10T02:37:47;13.70;99.90
11704;DHT22;5908;51.354;7.458;2023-05-10T02:40:15;13.60;99.90
11704;DHT22;5908;51.354;7.458;2023-05-10T02:42:44;13.60;99.90
11704;DHT22;5908;51.354;7.458;2023-05-10T02:45:14;13.60;99.90
11704;DHT22;5908;51.354;7.458;2023-05-10T02:47:43;13.50;99.90
11704;DHT22;5908;51.354;7.458;2023-05-10T02:50:10;13.50;99.90
11704;DHT22;5908;51.354;7.458;2023-05-10T02:52:42;13.40;99.90
11704;DHT22;5908;51.354;7.458;2023-05-10T02:55:14;13.40;99.90
11704;DHT22;5908;51.354;7.458;2023-05-10T02:57:48;13.40;99.90
11704;DHT22;5908;51.354;7.458;2023-05-10T03:00:17;13.40;99.90
11704;DHT22;5908;51.354;7.458;2023-05-10T03:02:44;13.40;99.90
11704;DHT22;5908;51.354;7.458;2023-05-10T03:05:11;13.40;99.90
11704;DHT22;5908;51.354;7.458;2023-05-10T03:07:37;13.40;99.90
11704;DHT22;5908;51.354;7.458;2023-05-10T03:10:05;13.30;99.90
11704;DHT22;5908;51.354;7.458;2023-05-10T03:12:46;13.30;99.90
11704;DHT22;5908;51.354;7.458;2023-05-10T03:15:17;13.30;99.90
11704;DHT22;5908;51.354;7.458;2023-05-10T03:17:48;13.20;99.90
11704;DHT22;5908;51.354;7.458;2023-05-10T03:20:22;13.20;99.90
11704;DHT22;5908;51.354;7.458;2023-05-10T03:22:55;13.10;99.90
11704;DHT22;5908;51.354;7.458;2023-05-10T03:25:23;13.10;99.90
11704;DHT22;5908;51.354;7.458;2023-05-10T03:27:52;13.10;99.90
11704;DHT22;5908;51.354;7.458;2023-05-10T03:30:19;13.10;99.90
11704;DHT22;5908;51.354;7.458;2023-05-10T03:32:46;13.10;99.90
11704;DHT22;5908;51.354;7.458;2023-05-10T03:35:13;13.10;99.90
11704;DHT22;5908;51.354;7.458;2023-05-10T03:37:40;13.00;99.90
11704;DHT22;5908;51.354;7.458;2023-05-10T03:40:07;13.00;99.90
11704;DHT22;5908;51.354;7.458;2023-05-10T03:42:34;13.00;99.90
11704;DHT22;5908;51.354;7.458;2023-05-10T03:45:03;13.00;99.90
11704;DHT22;5908;51.354;7.458;2023-05-10T03:47:29;13.00;99.90
11704;DHT22;5908;51.354;7.458;2023-05-10T03:49:57;13.00;99.90
11704;DHT22;5908;51.354;7.458;2023-05-10T03:52:23;13.00;99.90
11704;DHT22;5908;51.354;7.458;2023-05-10T03:54:50;13.00;99.90
11704;DHT22;5908;51.354;7.458;2023-05-10T03:57:17;13.10;99.90
11704;DHT22;5908;51.354;7.458;2023-05-10T03:59:44;13.10;99.90
11704;DHT22;5908;51.354;7.458;2023-05-10T04:02:12;13.10;99.90
11704;DHT22;5908;51.354;7.458;2023-05-10T04:04:39;13.10;99.90
11704;DHT22;5908;51.354;7.458;2023-05-10T04:07:05;13.10;99.90
11704;DHT22;5908;51.354;7.458;2023-05-10T04:09:32;13.10;99.90
11704;DHT22;5908;51.354;7.458;2023-05-10T04:11:59;13.20;99.90
11704;DHT22;5908;51.354;7.458;2023-05-10T04:14:27;13.20;99.90
11704;DHT22;5908;51.354;7.458;2023-05-10T04:16:54;13.30;99.90
11704;DHT22;5908;51.354;7.458;2023-05-10T04:19:22;13.30;99.90
11704;DHT22;5908;51.354;7.458;2023-05-10T04:21:49;13.30;99.90
11704;DHT22;5908;51.354;7.458;2023-05-10T04:24:16;13.30;99.90
11704;DHT22;5908;51.354;7.458;2023-05-10T04:26:43;13.30;99.90
11704;DHT22;5908;51.354;7.458;2023-05-10T04:29:10;13.30;99.90
11704;DHT22;5908;51.354;7.458;2023-05-10T04:31:37;13.30;99.90
11704;DHT22;5908;51.354;7.458;2023-05-10T04:34:04;13.40;99.90
11704;DHT22;5908;51.354;7.458;2023-05-10T04:36:32;13.50;99.90
11704;DHT22;5908;51.354;7.458;2023-05-10T04:39:01;13.50;99.90
11704;DHT22;5908;51.354;7.458;2023-05-10T04:41:29;13.50;99.90
11704;DHT22;5908;51.354;7.458;2023-05-10T04:43:56;13.50;99.90
11704;DHT22;5908;51.354;7.458;2023-05-10T04:46:22;13.60;99.90
11704;DHT22;5908;51.354;7.458;2023-05-10T04:48:49;13.60;99.90
11704;DHT22;5908;51.354;7.458;2023-05-10T04:51:16;13.50;99.90
11704;DHT22;5908;51.354;7.458;2023-05-10T04:53:44;13.50;99.90
11704;DHT22;5908;51.354;7.458;2023-05-10T04:56:11;13.50;99.90
11704;DHT22;5908;51.354;7.458;2023-05-10T04:58:37;13.50;99.90
11704;DHT22;5908;51.354;7.458;2023-05-10T05:01:05;13.60;99.90
11704;DHT22;5908;51.354;7.458;2023-05-10T05:03:33;13.50;99.90
11704;DHT22;5908;51.354;7.458;2023-05-10T05:06:00;13.50;99.90
11704;DHT22;5908;51.354;7.458;2023-05-10T05:08:26;13.50;99.90
11704;DHT22;5908;51.354;7.458;2023-05-10T05:10:54;13.60;99.90
11704;DHT22;5908;51.354;7.458;2023-05-10T05:13:21;13.60;99.90
11704;DHT22;5908;51.354;7.458;2023-05-10T05:15:48;13.60;99.90
11704;DHT22;5908;51.354;7.458;2023-05-10T05:18:15;13.60;99.90
11704;DHT22;5908;51.354;7.458;2023-05-10T05:20:41;13.60;99.90
11704;DHT22;5908;51.354;7.458;2023-05-10T05:23:08;13.50;99.90
11704;DHT22;5908;51.354;7.458;2023-05-10T05:25:35;13.40;99.90
11704;DHT22;5908;51.354;7.458;2023-05-10T05:28:03;13.40;99.90
11704;DHT22;5908;51.354;7.458;2023-05-10T05:30:30;13.50;99.90
11704;DHT22;5908;51.354;7.458;2023-05-10T05:32:57;13.50;99.90
11704;DHT22;5908;51.354;7.458;2023-05-10T05:35:24;13.50;99.90
11704;DHT22;5908;51.354;7.458;2023-05-10T05:37:51;13.60;99.90
11704;DHT22;5908;51.354;7.458;2023-05-10T05:40:18;13.70;99.90
11704;DHT22;5908;51.354;7.458;2023-05-10T05:42:45;13.80;99.90
11704;DHT22;5908;51.354;7.458;2023-05-10T05:45:13;13.80;99.90
11704;DHT22;5908;51.354;7.458;2023-05-10T05:47:40;13.80;99.90
11704;DHT22;5908;51.354;7.458;2023-05-10T05:50:08;13.80;99.90
11704;DHT22;5908;51.354;7.458;2023-05-10T05:52:35;13.90;99.90
11704;DHT22;5908;51.354;7.458;2023-05-10T05:55:02;13.90;99.90
11704;DHT22;5908;51.354;7.458;2023-05-10T05:57:29;13.90;99.90
11704;DHT22;5908;51.354;7.458;2023-05-10T05:59:55;14.00;99.90
11704;DHT22;5908;51.354;7.458;2023-05-10T06:02:23;14.00;99.90
11704;DHT22;5908;51.354;7.458;2023-05-10T06:04:50;14.00;99.90
11704;DHT22;5908;51.354;7.458;2023-05-10T06:07:17;14.10;99.90
11704;DHT22;5908;51.354;7.458;2023-05-10T06:09:44;14.20;99.90
11704;DHT22;5908;51.354;7.458;2023-05-10T06:12:10;14.40;99.90
11704;DHT22;5908;51.354;7.458;2023-05-10T06:14:38;14.80;99.90
11704;DHT22;5908;51.354;7.458;2023-05-10T06:17:04;15.10;99.90
11704;DHT22;5908;51.354;7.458;2023-05-10T06:19:33;15.40;99.90
11704;DHT22;5908;51.354;7.458;2023-05-10T06:22:01;15.60;99.90
11704;DHT22;5908;51.354;7.458;2023-05-10T06:24:27;15.80;99.90
11704;DHT22;5908;51.354;7.458;2023-05-10T06:26:54;15.80;99.90
11704;DHT22;5908;51.354;7.458;2023-05-10T06:29:21;15.80;99.90
11704;DHT22;5908;51.354;7.458;2023-05-10T06:31:47;15.80;99.90
11704;DHT22;5908;51.354;7.458;2023-05-10T06:34:14;16.10;99.90
11704;DHT22;5908;51.354;7.458;2023-05-10T06:36:42;16.50;99.90
11704;DHT22;5908;51.354;7.458;2023-05-10T06:39:09;16.70;99.90
11704;DHT22;5908;51.354;7.458;2023-05-10T06:41:37;16.80;99.90
11704;DHT22;5908;51.354;7.458;2023-05-10T06:44:04;16.80;99.90
11704;DHT22;5908;51.354;7.458;2023-05-10T06:46:31;16.70;99.90
11704;DHT22;5908;51.354;7.458;2023-05-10T06:48:57;16.60;99.90
11704;DHT22;5908;51.354;7.458;2023-05-10T06:51:24;16.70;99.90
11704;DHT22;5908;51.354;7.458;2023-05-10T06:53:52;16.90;99.90
11704;DHT22;5908;51.354;7.458;2023-05-10T06:56:19;17.10;99.90
11704;DHT22;5908;51.354;7.458;2023-05-10T06:58:47;17.10;99.90
11704;DHT22;5908;51.354;7.458;2023-05-10T07:01:14;17.30;99.90
11704;DHT22;5908;51.354;7.458;2023-05-10T07:03:40;17.50;99.90
11704;DHT22;5908;51.354;7.458;2023-05-10T07:06:07;17.60;99.90
11704;DHT22;5908;51.354;7.458;2023-05-10T07:08:34;17.80;99.90
11704;DHT22;5908;51.354;7.458;2023-05-10T07:11:04;17.80;99.90
11704;DHT22;5908;51.354;7.458;2023-05-10T07:13:33;18.00;99.90
11704;DHT22;5908;51.354;7.458;2023-05-10T07:16:00;18.10;99.90
11704;DHT22;5908;51.354;7.458;2023-05-10T07:18:27;18.10;99.90
11704;DHT22;5908;51.354;7.458;2023-05-10T07:20:54;18.10;99.90
11704;DHT22;5908;51.354;7.458;2023-05-10T07:23:21;18.30;99.90
11704;DHT22;5908;51.354;7.458;2023-05-10T07:25:48;18.40;99.90
11704;DHT22;5908;51.354;7.458;2023-05-10T07:28:18;18.60;99.90
11704;DHT22;5908;51.354;7.458;2023-05-10T07:30:45;19.00;99.90
11704;DHT22;5908;51.354;7.458;2023-05-10T07:33:13;19.10;99.90
11704;DHT22;5908;51.354;7.458;2023-05-10T07:35:40;19.30;99.90
11704;DHT22;5908;51.354;7.458;2023-05-10T07:38:07;19.70;99.90
11704;DHT22;5908;51.354;7.458;2023-05-10T07:40:33;20.00;99.90
11704;DHT22;5908;51.354;7.458;2023-05-10T07:43:00;19.90;99.90
11704;DHT22;5908;51.354;7.458;2023-05-10T07:45:29;19.50;99.90
11704;DHT22;5908;51.354;7.458;2023-05-10T07:47:55;19.20;99.90
11704;DHT22;5908;51.354;7.458;2023-05-10T07:50:22;18.90;99.90
11704;DHT22;5908;51.354;7.458;2023-05-10T07:52:49;18.60;99.90
11704;DHT22;5908;51.354;7.458;2023-05-10T07:55:18;18.30;99.90
11704;DHT22;5908;51.354;7.458;2023-05-10T07:57:45;18.30;99.90
11704;DHT22;5908;51.354;7.458;2023-05-10T08:00:13;18.50;99.90
11704;DHT22;5908;51.354;7.458;2023-05-10T08:02:44;18.60;99.90
11704;DHT22;5908;51.354;7.458;2023-05-10T08:05:11;18.80;99.90
11704;DHT22;5908;51.354;7.458;2023-05-10T08:07:38;18.70;99.90
11704;DHT22;5908;51.354;7.458;2023-05-10T08:10:06;18.50;99.90
11704;DHT22;5908;51.354;7.458;2023-05-10T08:12:32;18.40;99.90
11704;DHT22;5908;51.354;7.458;2023-05-10T08:14:59;18.50;99.90
11704;DHT22;5908;51.354;7.458;2023-05-10T08:17:26;18.50;99.90
11704;DHT22;5908;51.354;7.458;2023-05-10T08:19:54;18.60;99.90
11704;DHT22;5908;51.354;7.458;2023-05-10T08:22:21;18.70;99.90
11704;DHT22;5908;51.354;7.458;2023-05-10T08:24:47;19.00;99.90
11704;DHT22;5908;51.354;7.458;2023-05-10T08:27:14;19.40;99.90
11704;DHT22;5908;51.354;7.458;2023-05-10T08:29:41;19.80;99.90
11704;DHT22;5908;51.354;7.458;2023-05-10T08:32:08;20.20;99.90
11704;DHT22;5908;51.354;7.458;2023-05-10T08:34:34;20.60;99.90
11704;DHT22;5908;51.354;7.458;2023-05-10T08:37:03;20.90;99.90
11704;DHT22;5908;51.354;7.458;2023-05-10T08:39:34;21.00;99.90
11704;DHT22;5908;51.354;7.458;2023-05-10T08:42:02;21.00;99.90
11704;DHT22;5908;51.354;7.458;2023-05-10T08:44:31;21.20;99.90
11704;DHT22;5908;51.354;7.458;2023-05-10T08:46:59;21.10;99.90
11704;DHT22;5908;51.354;7.458;2023-05-10T08:49:31;21.00;99.90
11704;DHT22;5908;51.354;7.458;2023-05-10T08:52:01;20.40;99.90
11704;DHT22;5908;51.354;7.458;2023-05-10T08:54:31;20.00;99.90
11704;DHT22;5908;51.354;7.458;2023-05-10T08:56:58;19.80;99.90
11704;DHT22;5908;51.354;7.458;2023-05-10T08:59:25;19.70;99.90
11704;DHT22;5908;51.354;7.458;2023-05-10T09:01:54;19.90;99.90
11704;DHT22;5908;51.354;7.458;2023-05-10T09:04:22;20.20;99.90
11704;DHT22;5908;51.354;7.458;2023-05-10T09:06:49;20.40;99.90
11704;DHT22;5908;51.354;7.458;2023-05-10T09:09:17;20.30;99.90
11704;DHT22;5908;51.354;7.458;2023-05-10T09:11:45;19.90;99.90
11704;DHT22;5908;51.354;7.458;2023-05-10T09:14:12;19.80;99.90
11704;DHT22;5908;51.354;7.458;2023-05-10T09:16:40;20.10;99.90
11704;DHT22;5908;51.354;7.458;2023-05-10T09:19:07;20.60;99.90
11704;DHT22;5908;51.354;7.458;2023-05-10T09:21:35;21.20;99.90
11704;DHT22;5908;51.354;7.458;2023-05-10T09:24:04;21.30;99.00
11704;DHT22;5908;51.354;7.458;2023-05-10T09:26:31;21.30;98.40
11704;DHT22;5908;51.354;7.458;2023-05-10T09:29:00;21.30;97.60
11704;DHT22;5908;51.354;7.458;2023-05-10T09:31:43;21.10;97.80
11704;DHT22;5908;51.354;7.458;2023-05-10T09:34:15;21.00;98.20
11704;DHT22;5908;51.354;7.458;2023-05-10T09:36:51;21.00;98.20
11704;DHT22;5908;51.354;7.458;2023-05-10T09:39:18;21.00;97.40
11704;DHT22;5908;51.354;7.458;2023-05-10T09:41:45;20.60;97.20
11704;DHT22;5908;51.354;7.458;2023-05-10T09:44:16;20.40;98.60
11704;DHT22;5908;51.354;7.458;2023-05-10T09:46:49;20.50;99.30
11704;DHT22;5908;51.354;7.458;2023-05-10T09:49:16;20.70;98.60
11704;DHT22;5908;51.354;7.458;2023-05-10T09:51:42;20.60;98.90
11704;DHT22;5908;51.354;7.458;2023-05-10T09:54:10;20.80;98.20
11704;DHT22;5908;51.354;7.458;2023-05-10T09:56:37;20.90;98.70
11704;DHT22;5908;51.354;7.458;2023-05-10T09:59:06;21.20;98.20
11704;DHT22;5908;51.354;7.458;2023-05-10T10:01:35;21.30;97.10
11704;DHT22;5908;51.354;7.458;2023-05-10T10:04:03;21.60;96.20
11704;DHT22;5908;51.354;7.458;2023-05-10T10:06:35;21.80;95.10
11704;DHT22;5908;51.354;7.458;2023-05-10T10:09:03;21.70;94.50
11704;DHT22;5908;51.354;7.458;2023-05-10T10:11:30;21.20;95.90
11704;DHT22;5908;51.354;7.458;2023-05-10T10:13:58;20.30;97.40
11704;DHT22;5908;51.354;7.458;2023-05-10T10:16:25;19.60;99.90
11704;DHT22;5908;51.354;7.458;2023-05-10T10:18:54;19.20;99.90
11704;DHT22;5908;51.354;7.458;2023-05-10T10:21:21;18.90;99.90
11704;DHT22;5908;51.354;7.458;2023-05-10T10:23:48;19.00;99.90
11704;DHT22;5908;51.354;7.458;2023-05-10T10:26:17;19.40;99.90
11704;DHT22;5908;51.354;7.458;2023-05-10T10:28:50;19.70;99.90
11704;DHT22;5908;51.354;7.458;2023-05-10T10:31:26;20.30;99.90
11704;DHT22;5908;51.354;7.458;2023-05-10T10:34:00;20.70;99.90
11704;DHT22;5908;51.354;7.458;2023-05-10T10:36:28;21.30;99.90
11704;DHT22;5908;51.354;7.458;2023-05-10T10:38:59;21.80;99.90
11704;DHT22;5908;51.354;7.458;2023-05-10T10:41:33;22.30;99.90
11704;DHT22;5908;51.354;7.458;2023-05-10T10:44:23;22.60;99.90
11704;DHT22;5908;51.354;7.458;2023-05-10T10:47:07;22.50;97.50
11704;DHT22;5908;51.354;7.458;2023-05-10T10:49:48;21.90;97.00
11704;DHT22;5908;51.354;7.458;2023-05-10T10:52:22;21.10;99.10
11704;DHT22;5908;51.354;7.458;2023-05-10T10:54:52;20.40;99.90
11704;DHT22;5908;51.354;7.458;2023-05-10T10:57:21;19.80;99.90
11704;DHT22;5908;51.354;7.458;2023-05-10T10:59:53;19.50;99.90
11704;DHT22;5908;51.354;7.458;2023-05-10T11:02:43;19.50;99.90
11704;DHT22;5908;51.354;7.458;2023-05-10T11:08:15;19.70;99.90
11704;DHT22;5908;51.354;7.458;2023-05-10T11:11:03;20.20;99.90
11704;DHT22;5908;51.354;7.458;2023-05-10T11:13:34;21.00;98.30
11704;DHT22;5908;51.354;7.458;2023-05-10T11:16:11;21.20;97.40
11704;DHT22;5908;51.354;7.458;2023-05-10T11:18:38;21.40;97.40
11704;DHT22;5908;51.354;7.458;2023-05-10T11:21:09;21.50;96.40
11704;DHT22;5908;51.354;7.458;2023-05-10T11:23:48;21.30;96.30
11704;DHT22;5908;51.354;7.458;2023-05-10T11:26:16;21.40;97.20
11704;DHT22;5908;51.354;7.458;2023-05-10T11:28:43;21.40;96.20
11704;DHT22;5908;51.354;7.458;2023-05-10T11:31:12;21.40;96.20
11704;DHT22;5908;51.354;7.458;2023-05-10T11:33:42;21.40;96.20
11704;DHT22;5908;51.354;7.458;2023-05-10T11:36:13;21.40;96.10
11704;DHT22;5908;51.354;7.458;2023-05-10T11:38:40;21.40;95.90
11704;DHT22;5908;51.354;7.458;2023-05-10T11:41:08;21.80;95.50
11704;DHT22;5908;51.354;7.458;2023-05-10T11:43:39;22.20;92.50
11704;DHT22;5908;51.354;7.458;2023-05-10T11:46:10;22.20;91.10
11704;DHT22;5908;51.354;7.458;2023-05-10T11:48:38;22.40;91.40
11704;DHT22;5908;51.354;7.458;2023-05-10T11:51:06;22.50;91.30
11704;DHT22;5908;51.354;7.458;2023-05-10T11:53:34;22.50;90.80
11704;DHT22;5908;51.354;7.458;2023-05-10T11:56:06;22.30;90.80
11704;DHT22;5908;51.354;7.458;2023-05-10T11:58:33;21.90;90.50
11704;DHT22;5908;51.354;7.458;2023-05-10T12:01:00;21.70;90.60
11704;DHT22;5908;51.354;7.458;2023-05-10T12:03:28;21.50;91.00
11704;DHT22;5908;51.354;7.458;2023-05-10T12:05:56;21.40;91.40
11704;DHT22;5908;51.354;7.458;2023-05-10T12:08:24;21.60;91.10
11704;DHT22;5908;51.354;7.458;2023-05-10T12:10:53;21.90;90.50
11704;DHT22;5908;51.354;7.458;2023-05-10T12:13:20;22.30;88.70
11704;DHT22;5908;51.354;7.458;2023-05-10T12:15:47;22.50;87.90
11704;DHT22;5908;51.354;7.458;2023-05-10T12:18:14;22.70;87.40
11704;DHT22;5908;51.354;7.458;2023-05-10T12:20:41;22.90;87.40
11704;DHT22;5908;51.354;7.458;2023-05-10T12:23:09;23.10;85.90
11704;DHT22;5908;51.354;7.458;2023-05-10T12:25:37;22.90;85.70
11704;DHT22;5908;51.354;7.458;2023-05-10T12:28:07;22.70;86.50
11704;DHT22;5908;51.354;7.458;2023-05-10T12:30:35;23.00;86.40
11704;DHT22;5908;51.354;7.458;2023-05-10T12:33:07;23.20;85.90
11704;DHT22;5908;51.354;7.458;2023-05-10T12:35:43;23.30;84.00
11704;DHT22;5908;51.354;7.458;2023-05-10T12:38:24;23.30;84.30
11704;DHT22;5908;51.354;7.458;2023-05-10T12:40:51;23.30;84.30
11704;DHT22;5908;51.354;7.458;2023-05-10T12:43:19;23.00;84.50
11704;DHT22;5908;51.354;7.458;2023-05-10T12:45:47;22.70;84.80
11704;DHT22;5908;51.354;7.458;2023-05-10T12:48:14;22.50;85.00
11704;DHT22;5908;51.354;7.458;2023-05-10T12:50:41;22.50;84.80
11704;DHT22;5908;51.354;7.458;2023-05-10T12:53:08;22.80;84.20
11704;DHT22;5908;51.354;7.458;2023-05-10T12:55:35;23.00;82.90
11704;DHT22;5908;51.354;7.458;2023-05-10T12:58:01;22.90;83.80
11704;DHT22;5908;51.354;7.458;2023-05-10T13:00:29;22.90;84.60
11704;DHT22;5908;51.354;7.458;2023-05-10T13:02:56;22.70;84.30
11704;DHT22;5908;51.354;7.458;2023-05-10T13:05:23;22.40;85.10
11704;DHT22;5908;51.354;7.458;2023-05-10T13:07:50;22.40;86.50
11704;DHT22;5908;51.354;7.458;2023-05-10T13:10:16;22.40;85.40
11704;DHT22;5908;51.354;7.458;2023-05-10T13:12:43;22.30;85.80
11704;DHT22;5908;51.354;7.458;2023-05-10T13:15:10;22.00;86.80
11704;DHT22;5908;51.354;7.458;2023-05-10T13:17:38;21.80;87.30
11704;DHT22;5908;51.354;7.458;2023-05-10T13:20:07;21.50;87.40
11704;DHT22;5908;51.354;7.458;2023-05-10T13:22:34;21.50;86.80
11704;DHT22;5908;51.354;7.458;2023-05-10T13:25:01;21.50;87.80
11704;DHT22;5908;51.354;7.458;2023-05-10T13:27:28;21.60;88.00
11704;DHT22;5908;51.354;7.458;2023-05-10T13:29:55;21.70;88.00
11704;DHT22;5908;51.354;7.458;2023-05-10T13:32:22;21.70;88.60
11704;DHT22;5908;51.354;7.458;2023-05-10T13:34:50;21.80;89.30
11704;DHT22;5908;51.354;7.458;2023-05-10T13:37:17;21.80;88.80
11704;DHT22;5908;51.354;7.458;2023-05-10T13:39:44;21.70;88.00
11704;DHT22;5908;51.354;7.458;2023-05-10T13:42:10;21.50;88.50
11704;DHT22;5908;51.354;7.458;2023-05-10T13:44:37;21.50;88.50
11704;DHT22;5908;51.354;7.458;2023-05-10T13:47:04;21.30;88.10
11704;DHT22;5908;51.354;7.458;2023-05-10T13:49:31;21.30;87.70
11704;DHT22;5908;51.354;7.458;2023-05-10T13:52:00;21.40;87.70
11704;DHT22;5908;51.354;7.458;2023-05-10T13:54:31;21.60;87.10
11704;DHT22;5908;51.354;7.458;2023-05-10T13:56:58;21.70;87.30
11704;DHT22;5908;51.354;7.458;2023-05-10T13:59:25;21.70;87.60
11704;DHT22;5908;51.354;7.458;2023-05-10T14:01:52;21.50;87.00
11704;DHT22;5908;51.354;7.458;2023-05-10T14:04:19;21.70;85.70
11704;DHT22;5908;51.354;7.458;2023-05-10T14:06:45;21.70;86.90
11704;DHT22;5908;51.354;7.458;2023-05-10T14:09:13;21.90;85.90
11704;DHT22;5908;51.354;7.458;2023-05-10T14:11:41;22.20;85.60
11704;DHT22;5908;51.354;7.458;2023-05-10T14:14:08;22.40;84.00
11704;DHT22;5908;51.354;7.458;2023-05-10T14:16:35;22.70;83.70
11704;DHT22;5908;51.354;7.458;2023-05-10T14:19:02;23.00;83.70
11704;DHT22;5908;51.354;7.458;2023-05-10T14:21:29;23.20;82.00
11704;DHT22;5908;51.354;7.458;2023-05-10T14:23:56;23.50;80.90
11704;DHT22;5908;51.354;7.458;2023-05-10T14:26:24;23.60;80.00
11704;DHT22;5908;51.354;7.458;2023-05-10T14:28:51;23.70;80.20
11704;DHT22;5908;51.354;7.458;2023-05-10T14:31:18;23.70;80.00
11704;DHT22;5908;51.354;7.458;2023-05-10T14:33:46;23.60;79.30
11704;DHT22;5908;51.354;7.458;2023-05-10T14:36:12;23.50;80.60
11704;DHT22;5908;51.354;7.458;2023-05-10T14:38:39;23.50;80.50
11704;DHT22;5908;51.354;7.458;2023-05-10T14:41:06;23.50;79.60
11704;DHT22;5908;51.354;7.458;2023-05-10T14:43:34;23.50;79.80
11704;DHT22;5908;51.354;7.458;2023-05-10T14:46:02;23.60;79.20
11704;DHT22;5908;51.354;7.458;2023-05-10T14:48:28;23.60;79.90
11704;DHT22;5908;51.354;7.458;2023-05-10T14:50:55;23.70;79.20
11704;DHT22;5908;51.354;7.458;2023-05-10T14:53:22;23.90;78.30
11704;DHT22;5908;51.354;7.458;2023-05-10T14:55:49;23.90;78.10
11704;DHT22;5908;51.354;7.458;2023-05-10T14:58:16;23.90;77.60
11704;DHT22;5908;51.354;7.458;2023-05-10T15:00:44;24.00;77.30
11704;DHT22;5908;51.354;7.458;2023-05-10T15:03:11;23.90;77.50
11704;DHT22;5908;51.354;7.458;2023-05-10T15:05:38;24.10;77.30
11704;DHT22;5908;51.354;7.458;2023-05-10T15:08:05;24.20;76.80
11704;DHT22;5908;51.354;7.458;2023-05-10T15:10:32;24.10;77.20
11704;DHT22;5908;51.354;7.458;2023-05-10T15:12:59;23.70;77.10
11704;DHT22;5908;51.354;7.458;2023-05-10T15:15:26;23.30;78.60
11704;DHT22;5908;51.354;7.458;2023-05-10T15:17:54;23.20;78.90
11704;DHT22;5908;51.354;7.458;2023-05-10T15:20:21;23.10;79.50
11704;DHT22;5908;51.354;7.458;2023-05-10T15:22:47;23.10;79.90
11704;DHT22;5908;51.354;7.458;2023-05-10T15:25:14;23.00;80.20
11704;DHT22;5908;51.354;7.458;2023-05-10T15:27:41;23.20;80.20
11704;DHT22;5908;51.354;7.458;2023-05-10T15:30:09;23.30;79.50
11704;DHT22;5908;51.354;7.458;2023-05-10T15:32:36;23.50;79.20
11704;DHT22;5908;51.354;7.458;2023-05-10T15:35:08;23.70;78.40
11704;DHT22;5908;51.354;7.458;2023-05-10T15:37:35;23.60;78.50
11704;DHT22;5908;51.354;7.458;2023-05-10T15:40:02;23.60;79.30
11704;DHT22;5908;51.354;7.458;2023-05-10T15:42:29;23.40;79.40
11704;DHT22;5908;51.354;7.458;2023-05-10T15:44:57;23.10;80.70
11704;DHT22;5908;51.354;7.458;2023-05-10T15:47:24;22.70;81.70
11704;DHT22;5908;51.354;7.458;2023-05-10T15:49:50;22.50;83.10
11704;DHT22;5908;51.354;7.458;2023-05-10T15:52:19;22.40;83.40
11704;DHT22;5908;51.354;7.458;2023-05-10T15:54:46;22.40;83.70